sensor_id;sensor_type;location;lat;lon;timestamp;temperature;humidity
46085;DHT22;31823;47.032;8.310;2023-11-21T00:01:02;8.10;99.90
46085;DHT22;31823;47.032;8.310;2023-11-21T00:03:32;8.30;99.90
46085;DHT22;31823;47.032;8.310;2023-11-21T00:05:58;8.40;99.90
46085;DHT22;31823;47.032;8.310;2023-11-21T00:08:23;8.60;99.90
46085;DHT22;31823;47.032;8.310;2023-11-21T00:10:49;8.70;99.90
46085;DHT22;31823;47.032;8.310;2023-11-21T00:13:14;8.90;99.90
46085;DHT22;31823;47.032;8.310;2023-11-21T00:15:40;9.00;99.90
46085;DHT22;31823;47.032;8.310;2023-11-21T00:18:06;9.20;99.90
46085;DHT22;31823;47.032;8.310;2023-11-21T00:20:32;9.20;99.90
46085;DHT22;31823;47.032;8.310;2023-11-21T00:22:57;9.20;99.90
46085;DHT22;31823;47.032;8.310;2023-11-21T00:25:23;9.30;99.90
46085;DHT22;31823;47.032;8.310;2023-11-21T00:27:50;9.40;99.90
46085;DHT22;31823;47.032;8.310;2023-11-21T00:30:16;9.30;99.90
46085;DHT22;31823;47.032;8.310;2023-11-21T00:32:41;9.40;99.90
46085;DHT22;31823;47.032;8.310;2023-11-21T00:35:07;9.30;99.90
46085;DHT22;31823;47.032;8.310;2023-11-21T00:37:33;9.20;99.90
46085;DHT22;31823;47.032;8.310;2023-11-21T00:39:58;9.20;99.90
46085;DHT22;31823;47.032;8.310;2023-11-21T00:42:24;9.30;99.90
46085;DHT22;31823;47.032;8.310;2023-11-21T00:44:50;9.40;99.90
46085;DHT22;31823;47.032;8.310;2023-11-21T00:47:16;9.40;99.90
46085;DHT22;31823;47.032;8.310;2023-11-21T00:49:42;9.40;99.90
46085;DHT22;31823;47.032;8.310;2023-11-21T00:52:08;9.50;99.90
46085;DHT22;31823;47.032;8.310;2023-11-21T00:54:33;9.40;99.90
46085;DHT22;31823;47.032;8.310;2023-11-21T00:56:59;9.30;99.90
46085;DHT22;31823;47.032;8.310;2023-11-21T00:59:24;9.50;99.90
46085;DHT22;31823;47.032;8.310;2023-11-21T01:01:50;9.40;99.90
46085;DHT22;31823;47.032;8.310;2023-11-21T01:04:16;9.60;99.90
46085;DHT22;31823;47.032;8.310;2023-11-21T01:06:41;9.50;99.90
46085;DHT22;31823;47.032;8.310;2023-11-21T01:09:07;9.50;99.90
46085;DHT22;31823;47.032;8.310;2023-11-21T01:11:35;9.30;99.90
46085;DHT22;31823;47.032;8.310;2023-11-21T01:14:03;8.90;99.90
46085;DHT22;31823;47.032;8.310;2023-11-21T01:16:29;8.50;99.90
46085;DHT22;31823;47.032;8.310;2023-11-21T01:18:58;8.50;99.90
46085;DHT22;31823;47.032;8.310;2023-11-21T01:21:24;8.50;99.90
46085;DHT22;31823;47.032;8.310;2023-11-21T01:23:50;8.40;99.90
46085;DHT22;31823;47.032;8.310;2023-11-21T01:26:15;8.30;99.90
46085;DHT22;31823;47.032;8.310;2023-11-21T01:28:41;8.20;99.90
46085;DHT22;31823;47.032;8.310;2023-11-21T01:31:07;8.10;99.90
46085;DHT22;31823;47.032;8.310;2023-11-21T01:33:33;8.10;99.90
46085;DHT22;31823;47.032;8.310;2023-11-21T01:35:58;8.10;99.90
46085;DHT22;31823;47.032;8.310;2023-11-21T01:38:25;8.00;99.90
46085;DHT22;31823;47.032;8.310;2023-11-21T01:40:51;7.90;99.90
46085;DHT22;31823;47.032;8.310;2023-11-21T01:43:16;8.00;99.90
46085;DHT22;31823;47.032;8.310;2023-11-21T01:45:42;7.80;99.90
46085;DHT22;31823;47.032;8.310;2023-11-21T01:48:08;7.70;99.90
46085;DHT22;31823;47.032;8.310;2023-11-21T01:50:34;7.70;99.90
46085;DHT22;31823;47.032;8.310;2023-11-21T01:53:00;7.60;99.90
46085;DHT22;31823;47.032;8.310;2023-11-21T01:55:27;7.60;99.90
46085;DHT22;31823;47.032;8.310;2023-11-21T01:57:56;7.60;99.90
46085;DHT22;31823;47.032;8.310;2023-11-21T02:00:24;7.50;99.90
46085;DHT22;31823;47.032;8.310;2023-11-21T02:02:51;7.50;99.90
46085;DHT22;31823;47.032;8.310;2023-11-21T02:05:18;7.50;99.90
46085;DHT22;31823;47.032;8.310;2023-11-21T02:07:44;7.50;99.90
46085;DHT22;31823;47.032;8.310;2023-11-21T02:10:10;7.50;99.90
46085;DHT22;31823;47.032;8.310;2023-11-21T02:12:40;7.50;99.90
46085;DHT22;31823;47.032;8.310;2023-11-21T02:15:09;7.50;99.90
46085;DHT22;31823;47.032;8.310;2023-11-21T02:17:43;7.50;99.90
46085;DHT22;31823;47.032;8.310;2023-11-21T02:20:20;7.40;99.90
46085;DHT22;31823;47.032;8.310;2023-11-21T02:22:53;7.40;99.90
46085;DHT22;31823;47.032;8.310;2023-11-21T02:27:56;7.30;99.90
46085;DHT22;31823;47.032;8.310;2023-11-21T02:30:22;7.30;99.90
46085;DHT22;31823;47.032;8.310;2023-11-21T02:32:51;7.30;99.90
46085;DHT22;31823;47.032;8.310;2023-11-21T02:35:20;7.30;99.90
46085;DHT22;31823;47.032;8.310;2023-11-21T02:37:47;7.30;99.90
46085;DHT22;31823;47.032;8.310;2023-11-21T02:40:13;7.30;99.90
46085;DHT22;31823;47.032;8.310;2023-11-21T02:42:46;7.20;99.90
46085;DHT22;31823;47.032;8.310;2023-11-21T02:45:14;7.20;99.90
46085;DHT22;31823;47.032;8.310;2023-11-21T02:47:42;7.20;99.90
46085;DHT22;31823;47.032;8.310;2023-11-21T02:50:08;7.20;99.90
46085;DHT22;31823;47.032;8.310;2023-11-21T02:52:35;7.20;99.90
46085;DHT22;31823;47.032;8.310;2023-11-21T02:55:01;7.20;99.90
46085;DHT22;31823;47.032;8.310;2023-11-21T02:57:27;7.20;99.90
46085;DHT22;31823;47.032;8.310;2023-11-21T02:59:53;7.10;99.90
46085;DHT22;31823;47.032;8.310;2023-11-21T03:02:18;7.20;99.90
46085;DHT22;31823;47.032;8.310;2023-11-21T03:04:44;7.10;99.90
46085;DHT22;31823;47.032;8.310;2023-11-21T03:07:09;7.10;99.90
46085;DHT22;31823;47.032;8.310;2023-11-21T03:09:35;7.20;99.90
46085;DHT22;31823;47.032;8.310;2023-11-21T03:12:01;7.20;99.90
46085;DHT22;31823;47.032;8.310;2023-11-21T03:14:27;7.10;99.90
46085;DHT22;31823;47.032;8.310;2023-11-21T03:16:52;7.10;99.90
46085;DHT22;31823;47.032;8.310;2023-11-21T03:19:18;7.20;99.90
46085;DHT22;31823;47.032;8.310;2023-11-21T03:21:44;7.20;99.90
46085;DHT22;31823;47.032;8.310;2023-11-21T03:24:09;7.10;99.90
46085;DHT22;31823;47.032;8.310;2023-11-21T03:26:35;7.20;99.90
46085;DHT22;31823;47.032;8.310;2023-11-21T03:29:00;7.30;99.90
46085;DHT22;31823;47.032;8.310;2023-11-21T03:31:26;7.40;99.90
46085;DHT22;31823;47.032;8.310;2023-11-21T03:33:52;7.40;99.90
46085;DHT22;31823;47.032;8.310;2023-11-21T03:36:19;7.50;99.90
46085;DHT22;31823;47.032;8.310;2023-11-21T03:38:45;7.50;99.90
46085;DHT22;31823;47.032;8.310;2023-11-21T03:41:10;7.20;99.90
46085;DHT22;31823;47.032;8.310;2023-11-21T03:43:37;7.20;99.90
46085;DHT22;31823;47.032;8.310;2023-11-21T03:46:03;7.10;99.90
46085;DHT22;31823;47.032;8.310;2023-11-21T03:48:29;7.20;99.90
46085;DHT22;31823;47.032;8.310;2023-11-21T03:50:54;7.40;99.90
46085;DHT22;31823;47.032;8.310;2023-11-21T03:53:20;7.40;99.90
46085;DHT22;31823;47.032;8.310;2023-11-21T03:55:46;7.30;99.90
46085;DHT22;31823;47.032;8.310;2023-11-21T03:58:11;7.20;99.90
46085;DHT22;31823;47.032;8.310;2023-11-21T04:00:37;7.20;99.90
46085;DHT22;31823;47.032;8.310;2023-11-21T04:03:03;7.20;99.90
46085;DHT22;31823;47.032;8.310;2023-11-21T04:05:28;7.20;99.90
46085;DHT22;31823;47.032;8.310;2023-11-21T04:07:54;7.20;99.90
46085;DHT22;31823;47.032;8.310;2023-11-21T04:10:20;7.20;99.90
46085;DHT22;31823;47.032;8.310;2023-11-21T04:12:46;7.20;99.90
46085;DHT22;31823;47.032;8.310;2023-11-21T04:15:12;7.20;99.90
46085;DHT22;31823;47.032;8.310;2023-11-21T04:17:41;7.20;99.90
46085;DHT22;31823;47.032;8.310;2023-11-21T04:20:07;7.20;99.90
46085;DHT22;31823;47.032;8.310;2023-11-21T04:22:41;7.10;99.90
46085;DHT22;31823;47.032;8.310;2023-11-21T04:25:11;7.20;99.90
46085;DHT22;31823;47.032;8.310;2023-11-21T04:27:39;7.20;99.90
46085;DHT22;31823;47.032;8.310;2023-11-21T04:30:05;7.20;99.90
46085;DHT22;31823;47.032;8.310;2023-11-21T04:32:30;7.10;99.90
46085;DHT22;31823;47.032;8.310;2023-11-21T04:34:56;7.10;99.90
46085;DHT22;31823;47.032;8.310;2023-11-21T04:37:22;7.20;99.90
46085;DHT22;31823;47.032;8.310;2023-11-21T04:39:48;7.20;99.90
46085;DHT22;31823;47.032;8.310;2023-11-21T04:42:13;7.20;99.90
46085;DHT22;31823;47.032;8.310;2023-11-21T04:44:39;7.20;99.90
46085;DHT22;31823;47.032;8.310;2023-11-21T04:47:06;7.00;99.90
46085;DHT22;31823;47.032;8.310;2023-11-21T04:49:33;6.80;99.90
46085;DHT22;31823;47.032;8.310;2023-11-21T04:51:58;6.70;99.90
46085;DHT22;31823;47.032;8.310;2023-11-21T04:54:24;6.70;99.90
46085;DHT22;31823;47.032;8.310;2023-11-21T04:56:49;6.60;99.90
46085;DHT22;31823;47.032;8.310;2023-11-21T04:59:15;6.60;99.90
46085;DHT22;31823;47.032;8.310;2023-11-21T05:01:41;6.50;99.90
46085;DHT22;31823;47.032;8.310;2023-11-21T05:04:06;6.50;99.90
46085;DHT22;31823;47.032;8.310;2023-11-21T05:06:34;6.50;99.90
46085;DHT22;31823;47.032;8.310;2023-11-21T05:08:59;6.50;99.90
46085;DHT22;31823;47.032;8.310;2023-11-21T05:11:26;6.40;99.90
46085;DHT22;31823;47.032;8.310;2023-11-21T05:13:52;6.50;99.90
46085;DHT22;31823;47.032;8.310;2023-11-21T05:16:21;6.40;99.90
46085;DHT22;31823;47.032;8.310;2023-11-21T05:18:47;6.40;99.90
46085;DHT22;31823;47.032;8.310;2023-11-21T05:21:13;6.50;99.90
46085;DHT22;31823;47.032;8.310;2023-11-21T05:23:38;6.50;99.90
46085;DHT22;31823;47.032;8.310;2023-11-21T05:26:05;6.60;99.90
46085;DHT22;31823;47.032;8.310;2023-11-21T05:28:30;6.70;99.90
46085;DHT22;31823;47.032;8.310;2023-11-21T05:30:56;6.70;99.90
46085;DHT22;31823;47.032;8.310;2023-11-21T05:33:21;6.80;99.90
46085;DHT22;31823;47.032;8.310;2023-11-21T05:35:47;6.70;99.90
46085;DHT22;31823;47.032;8.310;2023-11-21T05:38:14;6.60;99.90
46085;DHT22;31823;47.032;8.310;2023-11-21T05:40:40;6.60;99.90
46085;DHT22;31823;47.032;8.310;2023-11-21T05:43:06;6.50;99.90
46085;DHT22;31823;47.032;8.310;2023-11-21T05:45:32;6.40;99.90
46085;DHT22;31823;47.032;8.310;2023-11-21T05:47:58;6.40;99.90
46085;DHT22;31823;47.032;8.310;2023-11-21T05:50:24;6.40;99.90
46085;DHT22;31823;47.032;8.310;2023-11-21T05:52:50;6.40;99.90
46085;DHT22;31823;47.032;8.310;2023-11-21T05:55:16;6.40;99.90
46085;DHT22;31823;47.032;8.310;2023-11-21T05:57:43;6.30;99.90
46085;DHT22;31823;47.032;8.310;2023-11-21T06:00:11;6.30;99.90
46085;DHT22;31823;47.032;8.310;2023-11-21T06:02:41;6.30;99.90
46085;DHT22;31823;47.032;8.310;2023-11-21T06:05:08;6.20;99.90
46085;DHT22;31823;47.032;8.310;2023-11-21T06:07:34;6.20;99.90
46085;DHT22;31823;47.032;8.310;2023-11-21T06:10:07;6.20;99.90
46085;DHT22;31823;47.032;8.310;2023-11-21T06:12:37;6.20;99.90
46085;DHT22;31823;47.032;8.310;2023-11-21T06:15:05;6.20;99.90
46085;DHT22;31823;47.032;8.310;2023-11-21T06:17:34;6.10;99.90
46085;DHT22;31823;47.032;8.310;2023-11-21T06:20:05;6.20;99.90
46085;DHT22;31823;47.032;8.310;2023-11-21T06:22:38;6.10;99.90
46085;DHT22;31823;47.032;8.310;2023-11-21T06:25:04;6.20;99.90
46085;DHT22;31823;47.032;8.310;2023-11-21T06:27:36;6.20;99.90
46085;DHT22;31823;47.032;8.310;2023-11-21T06:30:02;6.20;99.90
46085;DHT22;31823;47.032;8.310;2023-11-21T06:32:29;6.20;99.90
46085;DHT22;31823;47.032;8.310;2023-11-21T06:34:55;6.20;99.90
46085;DHT22;31823;47.032;8.310;2023-11-21T06:37:21;6.20;99.90
46085;DHT22;31823;47.032;8.310;2023-11-21T06:39:49;6.20;99.90
46085;DHT22;31823;47.032;8.310;2023-11-21T06:42:18;6.20;99.90
46085;DHT22;31823;47.032;8.310;2023-11-21T06:44:45;6.20;99.90
46085;DHT22;31823;47.032;8.310;2023-11-21T06:47:11;6.20;99.90
46085;DHT22;31823;47.032;8.310;2023-11-21T06:49:36;6.20;99.90
46085;DHT22;31823;47.032;8.310;2023-11-21T06:52:04;6.30;99.90
46085;DHT22;31823;47.032;8.310;2023-11-21T06:54:31;6.20;99.90
46085;DHT22;31823;47.032;8.310;2023-11-21T06:56:57;6.20;99.90
46085;DHT22;31823;47.032;8.310;2023-11-21T06:59:23;6.30;99.90
46085;DHT22;31823;47.032;8.310;2023-11-21T07:01:49;6.20;99.90
46085;DHT22;31823;47.032;8.310;2023-11-21T07:04:15;6.20;99.90
46085;DHT22;31823;47.032;8.310;2023-11-21T07:06:40;6.20;99.90
46085;DHT22;31823;47.032;8.310;2023-11-21T07:09:06;6.20;99.90
46085;DHT22;31823;47.032;8.310;2023-11-21T07:11:34;6.30;99.90
46085;DHT22;31823;47.032;8.310;2023-11-21T07:14:00;6.30;99.90
46085;DHT22;31823;47.032;8.310;2023-11-21T07:16:28;6.30;99.90
46085;DHT22;31823;47.032;8.310;2023-11-21T07:18:55;6.30;99.90
46085;DHT22;31823;47.032;8.310;2023-11-21T07:21:21;6.30;99.90
46085;DHT22;31823;47.032;8.310;2023-11-21T07:23:47;6.30;99.90
46085;DHT22;31823;47.032;8.310;2023-11-21T07:26:12;6.30;99.90
46085;DHT22;31823;47.032;8.310;2023-11-21T07:28:38;6.30;99.90
46085;DHT22;31823;47.032;8.310;2023-11-21T07:31:03;6.30;99.90
46085;DHT22;31823;47.032;8.310;2023-11-21T07:33:29;6.30;99.90
46085;DHT22;31823;47.032;8.310;2023-11-21T07:35:55;6.20;99.90
46085;DHT22;31823;47.032;8.310;2023-11-21T07:38:20;6.30;99.90
46085;DHT22;31823;47.032;8.310;2023-11-21T07:40:46;6.30;99.90
46085;DHT22;31823;47.032;8.310;2023-11-21T07:43:11;6.40;99.90
46085;DHT22;31823;47.032;8.310;2023-11-21T07:45:37;6.40;99.90
46085;DHT22;31823;47.032;8.310;2023-11-21T07:48:03;6.40;99.90
46085;DHT22;31823;47.032;8.310;2023-11-21T07:50:30;6.50;99.90
46085;DHT22;31823;47.032;8.310;2023-11-21T07:52:57;6.50;99.90
46085;DHT22;31823;47.032;8.310;2023-11-21T07:55:23;6.50;99.90
46085;DHT22;31823;47.032;8.310;2023-11-21T07:57:50;6.50;99.90
46085;DHT22;31823;47.032;8.310;2023-11-21T08:00:16;6.50;99.90
46085;DHT22;31823;47.032;8.310;2023-11-21T08:02:42;6.60;99.90
46085;DHT22;31823;47.032;8.310;2023-11-21T08:05:08;6.70;99.90
46085;DHT22;31823;47.032;8.310;2023-11-21T08:07:34;6.70;99.90
46085;DHT22;31823;47.032;8.310;2023-11-21T08:10:00;6.70;99.90
46085;DHT22;31823;47.032;8.310;2023-11-21T08:12:25;6.70;99.90
46085;DHT22;31823;47.032;8.310;2023-11-21T08:14:53;6.80;99.90
46085;DHT22;31823;47.032;8.310;2023-11-21T08:17:18;6.80;99.90
46085;DHT22;31823;47.032;8.310;2023-11-21T08:19:45;6.90;99.90
46085;DHT22;31823;47.032;8.310;2023-11-21T08:22:15;6.90;99.90
46085;DHT22;31823;47.032;8.310;2023-11-21T08:24:42;6.90;99.90
46085;DHT22;31823;47.032;8.310;2023-11-21T08:27:08;6.90;99.90
46085;DHT22;31823;47.032;8.310;2023-11-21T08:29:33;6.90;99.90
46085;DHT22;31823;47.032;8.310;2023-11-21T08:31:59;6.80;99.90
46085;DHT22;31823;47.032;8.310;2023-11-21T08:34:25;6.90;99.90
46085;DHT22;31823;47.032;8.310;2023-11-21T08:36:51;6.90;99.90
46085;DHT22;31823;47.032;8.310;2023-11-21T08:39:16;7.00;99.90
46085;DHT22;31823;47.032;8.310;2023-11-21T08:41:44;7.00;99.90
46085;DHT22;31823;47.032;8.310;2023-11-21T08:44:09;7.00;99.90
46085;DHT22;31823;47.032;8.310;2023-11-21T08:46:36;7.10;99.90
46085;DHT22;31823;47.032;8.310;2023-11-21T08:49:03;7.20;99.90
46085;DHT22;31823;47.032;8.310;2023-11-21T08:51:29;7.40;99.90
46085;DHT22;31823;47.032;8.310;2023-11-21T08:53:55;7.30;99.90
46085;DHT22;31823;47.032;8.310;2023-11-21T08:56:24;7.30;99.90
46085;DHT22;31823;47.032;8.310;2023-11-21T08:58:50;7.40;99.90
46085;DHT22;31823;47.032;8.310;2023-11-21T09:01:16;7.50;99.90
46085;DHT22;31823;47.032;8.310;2023-11-21T09:03:42;7.50;99.90
46085;DHT22;31823;47.032;8.310;2023-11-21T09:06:09;7.60;99.90
46085;DHT22;31823;47.032;8.310;2023-11-21T09:08:35;7.70;99.90
46085;DHT22;31823;47.032;8.310;2023-11-21T09:11:00;7.80;99.90
46085;DHT22;31823;47.032;8.310;2023-11-21T09:13:26;7.80;99.90
46085;DHT22;31823;47.032;8.310;2023-11-21T09:15:52;7.70;99.90
46085;DHT22;31823;47.032;8.310;2023-11-21T09:18:17;7.80;99.90
46085;DHT22;31823;47.032;8.310;2023-11-21T09:20:43;7.80;99.90
46085;DHT22;31823;47.032;8.310;2023-11-21T09:23:11;7.70;99.90
46085;DHT22;31823;47.032;8.310;2023-11-21T09:25:37;7.90;99.90
46085;DHT22;31823;47.032;8.310;2023-11-21T09:28:04;7.90;99.90
46085;DHT22;31823;47.032;8.310;2023-11-21T09:30:34;7.90;99.90
46085;DHT22;31823;47.032;8.310;2023-11-21T09:33:00;8.00;99.90
46085;DHT22;31823;47.032;8.310;2023-11-21T09:35:26;8.10;99.90
46085;DHT22;31823;47.032;8.310;2023-11-21T09:37:53;8.10;99.90
46085;DHT22;31823;47.032;8.310;2023-11-21T09:40:21;8.20;99.90
46085;DHT22;31823;47.032;8.310;2023-11-21T09:42:57;8.30;99.90
46085;DHT22;31823;47.032;8.310;2023-11-21T09:45:35;8.30;99.90
46085;DHT22;31823;47.032;8.310;2023-11-21T09:48:01;8.50;99.90
46085;DHT22;31823;47.032;8.310;2023-11-21T09:50:27;8.60;99.90
46085;DHT22;31823;47.032;8.310;2023-11-21T09:55:34;8.80;99.90
46085;DHT22;31823;47.032;8.310;2023-11-21T09:58:03;8.90;99.90
46085;DHT22;31823;47.032;8.310;2023-11-21T10:00:30;9.00;99.90
46085;DHT22;31823;47.032;8.310;2023-11-21T10:02:58;8.90;99.90
46085;DHT22;31823;47.032;8.310;2023-11-21T10:05:25;8.80;99.90
46085;DHT22;31823;47.032;8.310;2023-11-21T10:07:50;8.70;99.90
46085;DHT22;31823;47.032;8.310;2023-11-21T10:10:19;8.60;99.90
46085;DHT22;31823;47.032;8.310;2023-11-21T10:12:49;8.50;99.90
46085;DHT22;31823;47.032;8.310;2023-11-21T10:15:15;8.40;99.90
46085;DHT22;31823;47.032;8.310;2023-11-21T10:17:42;8.30;99.90
46085;DHT22;31823;47.032;8.310;2023-11-21T10:20:14;8.30;99.90
46085;DHT22;31823;47.032;8.310;2023-11-21T10:22:43;8.10;99.90
46085;DHT22;31823;47.032;8.310;2023-11-21T10:25:09;8.20;99.90
46085;DHT22;31823;47.032;8.310;2023-11-21T10:27:36;8.20;99.90
46085;DHT22;31823;47.032;8.310;2023-11-21T10:30:04;8.00;99.90
46085;DHT22;31823;47.032;8.310;2023-11-21T10:32:30;8.00;99.90
46085;DHT22;31823;47.032;8.310;2023-11-21T10:34:59;8.00;99.90
46085;DHT22;31823;47.032;8.310;2023-11-21T10:37:34;7.90;99.90
46085;DHT22;31823;47.032;8.310;2023-11-21T10:40:00;8.00;99.90
46085;DHT22;31823;47.032;8.310;2023-11-21T10:42:26;8.10;99.90
46085;DHT22;31823;47.032;8.310;2023-11-21T10:44:55;8.00;99.90
46085;DHT22;31823;47.032;8.310;2023-11-21T10:47:20;8.00;99.90
46085;DHT22;31823;47.032;8.310;2023-11-21T10:49:51;8.10;99.90
46085;DHT22;31823;47.032;8.310;2023-11-21T10:52:19;8.30;99.90
46085;DHT22;31823;47.032;8.310;2023-11-21T10:54:46;8.30;99.90
46085;DHT22;31823;47.032;8.310;2023-11-21T10:57:16;8.50;99.90
46085;DHT22;31823;47.032;8.310;2023-11-21T10:59:42;8.50;99.90
46085;DHT22;31823;47.032;8.310;2023-11-21T11:02:23;8.60;99.90
46085;DHT22;31823;47.032;8.310;2023-11-21T11:04:52;8.60;99.90
46085;DHT22;31823;47.032;8.310;2023-11-21T11:07:17;8.60;99.90
46085;DHT22;31823;47.032;8.310;2023-11-21T11:09:44;8.50;99.90
46085;DHT22;31823;47.032;8.310;2023-11-21T11:12:10;8.50;99.90
46085;DHT22;31823;47.032;8.310;2023-11-21T11:14:36;8.50;99.90
46085;DHT22;31823;47.032;8.310;2023-11-21T11:17:05;8.60;99.90
46085;DHT22;31823;47.032;8.310;2023-11-21T11:19:32;8.50;99.90
46085;DHT22;31823;47.032;8.310;2023-11-21T11:24:54;8.70;99.90
46085;DHT22;31823;47.032;8.310;2023-11-21T11:38:21;8.60;99.90
46085;DHT22;31823;47.032;8.310;2023-11-21T11:40:52;8.50;99.90
46085;DHT22;31823;47.032;8.310;2023-11-21T11:43:28;8.50;99.90
46085;DHT22;31823;47.032;8.310;2023-11-21T11:45:58;8.30;99.90
46085;DHT22;31823;47.032;8.310;2023-11-21T11:48:29;8.30;99.90
46085;DHT22;31823;47.032;8.310;2023-11-21T11:51:04;8.20;99.90
46085;DHT22;31823;47.032;8.310;2023-11-21T11:53:39;8.20;99.90
46085;DHT22;31823;47.032;8.310;2023-11-21T11:56:29;8.30;99.90
46085;DHT22;31823;47.032;8.310;2023-11-21T11:59:00;8.30;99.90
46085;DHT22;31823;47.032;8.310;2023-11-21T12:01:28;8.50;99.90
46085;DHT22;31823;47.032;8.310;2023-11-21T12:06:51;8.70;99.90
46085;DHT22;31823;47.032;8.310;2023-11-21T12:09:25;8.80;99.90
46085;DHT22;31823;47.032;8.310;2023-11-21T12:11:52;8.80;99.90
46085;DHT22;31823;47.032;8.310;2023-11-21T12:14:20;8.50;99.90
46085;DHT22;31823;47.032;8.310;2023-11-21T12:16:46;8.20;99.90
46085;DHT22;31823;47.032;8.310;2023-11-21T12:19:13;7.90;99.90
46085;DHT22;31823;47.032;8.310;2023-11-21T12:21:39;7.70;99.90
46085;DHT22;31823;47.032;8.310;2023-11-21T12:24:07;7.30;99.90
46085;DHT22;31823;47.032;8.310;2023-11-21T12:26:35;7.10;99.90
46085;DHT22;31823;47.032;8.310;2023-11-21T12:29:02;7.10;99.90
46085;DHT22;31823;47.032;8.310;2023-11-21T12:31:30;6.90;99.90
46085;DHT22;31823;47.032;8.310;2023-11-21T12:33:56;6.70;99.90
46085;DHT22;31823;47.032;8.310;2023-11-21T12:36:23;6.60;99.90
46085;DHT22;31823;47.032;8.310;2023-11-21T12:38:48;6.60;99.90
46085;DHT22;31823;47.032;8.310;2023-11-21T12:41:15;6.50;99.90
46085;DHT22;31823;47.032;8.310;2023-11-21T12:43:42;6.60;99.90
46085;DHT22;31823;47.032;8.310;2023-11-21T12:46:10;6.60;99.90
46085;DHT22;31823;47.032;8.310;2023-11-21T12:48:39;6.60;99.90
46085;DHT22;31823;47.032;8.310;2023-11-21T12:51:10;6.60;99.90
46085;DHT22;31823;47.032;8.310;2023-11-21T12:53:44;6.80;99.90
46085;DHT22;31823;47.032;8.310;2023-11-21T12:56:13;6.90;99.90
46085;DHT22;31823;47.032;8.310;2023-11-21T12:58:45;7.00;99.90
46085;DHT22;31823;47.032;8.310;2023-11-21T13:01:13;7.10;99.90
46085;DHT22;31823;47.032;8.310;2023-11-21T13:03:43;7.10;99.90
46085;DHT22;31823;47.032;8.310;2023-11-21T13:06:10;7.20;99.90
46085;DHT22;31823;47.032;8.310;2023-11-21T13:08:38;7.20;99.90
46085;DHT22;31823;47.032;8.310;2023-11-21T13:11:05;7.20;99.90
46085;DHT22;31823;47.032;8.310;2023-11-21T13:13:31;7.20;99.90
46085;DHT22;31823;47.032;8.310;2023-11-21T13:16:00;7.20;99.90
46085;DHT22;31823;47.032;8.310;2023-11-21T13:18:27;7.20;99.90
46085;DHT22;31823;47.032;8.310;2023-11-21T13:20:58;7.20;99.90
46085;DHT22;31823;47.032;8.310;2023-11-21T13:23:24;7.30;99.90
46085;DHT22;31823;47.032;8.310;2023-11-21T13:25:50;7.20;99.90
46085;DHT22;31823;47.032;8.310;2023-11-21T13:28:16;7.30;99.90
46085;DHT22;31823;47.032;8.310;2023-11-21T13:30:43;7.40;99.90
46085;DHT22;31823;47.032;8.310;2023-11-21T13:33:10;7.30;99.90
46085;DHT22;31823;47.032;8.310;2023-11-21T13:35:43;7.30;99.90
46085;DHT22;31823;47.032;8.310;2023-11-21T13:38:15;7.30;99.90
46085;DHT22;31823;47.032;8.310;2023-11-21T13:40:46;7.30;99.90
46085;DHT22;31823;47.032;8.310;2023-11-21T13:43:17;7.20;99.90
46085;DHT22;31823;47.032;8.310;2023-11-21T13:45:44;7.20;99.90
46085;DHT22;31823;47.032;8.310;2023-11-21T13:48:12;7.20;99.90
46085;DHT22;31823;47.032;8.310;2023-11-21T13:50:48;7.10;99.90
46085;DHT22;31823;47.032;8.310;2023-11-21T13:53:21;7.00;99.90
46085;DHT22;31823;47.032;8.310;2023-11-21T13:55:53;7.00;99.90
46085;DHT22;31823;47.032;8.310;2023-11-21T13:58:26;6.90;99.90
46085;DHT22;31823;47.032;8.310;2023-11-21T14:01:10;6.90;99.90
46085;DHT22;31823;47.032;8.310;2023-11-21T14:04:03;6.80;99.90
46085;DHT22;31823;47.032;8.310;2023-11-21T14:06:48;6.80;99.90
46085;DHT22;31823;47.032;8.310;2023-11-21T14:09:15;6.70;99.90
46085;DHT22;31823;47.032;8.310;2023-11-21T14:11:54;6.70;99.90
46085;DHT22;31823;47.032;8.310;2023-11-21T14:14:22;6.70;99.90
46085;DHT22;31823;47.032;8.310;2023-11-21T14:16:50;6.70;99.90
46085;DHT22;31823;47.032;8.310;2023-11-21T14:19:17;6.80;99.90
46085;DHT22;31823;47.032;8.310;2023-11-21T14:21:46;6.80;99.90
46085;DHT22;31823;47.032;8.310;2023-11-21T14:24:13;6.80;99.90
46085;DHT22;31823;47.032;8.310;2023-11-21T14:26:40;6.90;99.90
46085;DHT22;31823;47.032;8.310;2023-11-21T14:29:06;6.90;99.90
46085;DHT22;31823;47.032;8.310;2023-11-21T14:31:37;6.90;99.90
46085;DHT22;31823;47.032;8.310;2023-11-21T14:34:03;6.80;99.90
46085;DHT22;31823;47.032;8.310;2023-11-21T14:36:31;6.80;99.90
46085;DHT22;31823;47.032;8.310;2023-11-21T14:38:57;6.80;99.90
46085;DHT22;31823;47.032;8.310;2023-11-21T14:41:22;6.70;99.90
46085;DHT22;31823;47.032;8.310;2023-11-21T14:43:50;6.80;99.90
46085;DHT22;31823;47.032;8.310;2023-11-21T14:46:16;6.80;99.90
46085;DHT22;31823;47.032;8.310;2023-11-21T14:48:45;6.90;99.90
46085;DHT22;31823;47.032;8.310;2023-11-21T14:51:24;6.90;99.90
46085;DHT22;31823;47.032;8.310;2023-11-21T14:53:56;6.90;99.90
46085;DHT22;31823;47.032;8.310;2023-11-21T14:56:26;6.80;99.90
46085;DHT22;31823;47.032;8.310;2023-11-21T14:58:56;6.70;99.90
46085;DHT22;31823;47.032;8.310;2023-11-21T15:01:25;6.60;99.90
46085;DHT22;31823;47.032;8.310;2023-11-21T15:04:10;6.50;99.90
46085;DHT22;31823;47.032;8.310;2023-11-21T15:06:49;6.60;99.90
46085;DHT22;31823;47.032;8.310;2023-11-21T15:09:16;6.60;99.90
46085;DHT22;31823;47.032;8.310;2023-11-21T15:12:02;6.50;99.90
46085;DHT22;31823;47.032;8.310;2023-11-21T15:14:39;6.50;99.90
46085;DHT22;31823;47.032;8.310;2023-11-21T15:17:04;6.50;99.90
46085;DHT22;31823;47.032;8.310;2023-11-21T15:19:30;6.50;99.90
46085;DHT22;31823;47.032;8.310;2023-11-21T15:21:57;6.50;99.90
46085;DHT22;31823;47.032;8.310;2023-11-21T15:24:23;6.50;99.90
46085;DHT22;31823;47.032;8.310;2023-11-21T15:26:50;6.40;99.90
46085;DHT22;31823;47.032;8.310;2023-11-21T15:29:16;6.40;99.90
46085;DHT22;31823;47.032;8.310;2023-11-21T15:31:42;6.50;99.90
46085;DHT22;31823;47.032;8.310;2023-11-21T15:34:16;6.50;99.90
46085;DHT22;31823;47.032;8.310;2023-11-21T15:36:42;6.40;99.90
46085;DHT22;31823;47.032;8.310;2023-11-21T15:39:08;6.40;99.90
46085;DHT22;31823;47.032;8.310;2023-11-21T15:41:39;6.40;99.90
46085;DHT22;31823;47.032;8.310;2023-11-21T15:44:07;6.40;99.90
46085;DHT22;31823;47.032;8.310;2023-11-21T15:46:35;6.30;99.90
46085;DHT22;31823;47.032;8.310;2023-11-21T15:49:02;6.30;99.90
46085;DHT22;31823;47.032;8.310;2023-11-21T15:51:29;6.30;99.90
46085;DHT22;31823;47.032;8.310;2023-11-21T15:53:55;6.30;99.90
46085;DHT22;31823;47.032;8.310;2023-11-21T15:56:20;6.30;99.90
46085;DHT22;31823;47.032;8.310;2023-11-21T15:58:46;6.30;99.90
46085;DHT22;31823;47.032;8.310;2023-11-21T16:01:12;6.30;99.90
46085;DHT22;31823;47.032;8.310;2023-11-21T16:03:39;6.30;99.90
46085;DHT22;31823;47.032;8.310;2023-11-21T16:06:05;6.40;99.90
46085;DHT22;31823;47.032;8.310;2023-11-21T16:08:31;6.30;99.90